sensor_id;sensor_type;location;lat;lon;timestamp;pressure;altitude;pressure_sealevel;temperature
15607;BMP180;7865;50.918;4.510;2023-11-21T00:00:27;100561.00;;;8.40
15607;BMP180;7865;50.918;4.510;2023-11-21T00:05:29;100573.00;;;8.40
15607;BMP180;7865;50.918;4.510;2023-11-21T00:10:30;100573.00;;;8.40
15607;BMP180;7865;50.918;4.510;2023-11-21T00:15:31;100577.00;;;8.40
15607;BMP180;7865;50.918;4.510;2023-11-21T00:20:32;100573.00;;;8.40
15607;BMP180;7865;50.918;4.510;2023-11-21T00:25:33;100577.00;;;8.40
15607;BMP180;7865;50.918;4.510;2023-11-21T00:30:35;100580.00;;;8.40
15607;BMP180;7865;50.918;4.510;2023-11-21T00:35:36;100589.00;;;8.30
15607;BMP180;7865;50.918;4.510;2023-11-21T00:40:38;100596.00;;;8.30
15607;BMP180;7865;50.918;4.510;2023-11-21T00:45:39;100594.00;;;8.20
15607;BMP180;7865;50.918;4.510;2023-11-21T00:50:41;100600.00;;;8.10
15607;BMP180;7865;50.918;4.510;2023-11-21T00:55:42;100597.00;;;7.90
15607;BMP180;7865;50.918;4.510;2023-11-21T01:00:43;100594.00;;;7.80
15607;BMP180;7865;50.918;4.510;2023-11-21T01:05:46;100600.00;;;7.90
15607;BMP180;7865;50.918;4.510;2023-11-21T01:10:47;100612.00;;;8.00
15607;BMP180;7865;50.918;4.510;2023-11-21T01:15:49;100616.00;;;8.00
15607;BMP180;7865;50.918;4.510;2023-11-21T01:20:50;100616.00;;;8.00
15607;BMP180;7865;50.918;4.510;2023-11-21T01:25:51;100617.00;;;8.10
15607;BMP180;7865;50.918;4.510;2023-11-21T01:30:52;100622.00;;;8.10
15607;BMP180;7865;50.918;4.510;2023-11-21T01:35:57;100635.00;;;8.20
15607;BMP180;7865;50.918;4.510;2023-11-21T01:40:58;100631.00;;;8.20
15607;BMP180;7865;50.918;4.510;2023-11-21T01:46:02;100633.00;;;8.30
15607;BMP180;7865;50.918;4.510;2023-11-21T01:51:03;100633.00;;;8.30
15607;BMP180;7865;50.918;4.510;2023-11-21T01:56:05;100642.00;;;8.30
15607;BMP180;7865;50.918;4.510;2023-11-21T02:01:12;100634.00;;;8.30
15607;BMP180;7865;50.918;4.510;2023-11-21T02:06:15;100632.00;;;8.40
15607;BMP180;7865;50.918;4.510;2023-11-21T02:11:16;100630.00;;;8.40
15607;BMP180;7865;50.918;4.510;2023-11-21T02:16:17;100638.00;;;8.40
15607;BMP180;7865;50.918;4.510;2023-11-21T02:21:19;100648.00;;;8.40
15607;BMP180;7865;50.918;4.510;2023-11-21T02:26:24;100651.00;;;8.40
15607;BMP180;7865;50.918;4.510;2023-11-21T02:31:26;100653.00;;;8.40
15607;BMP180;7865;50.918;4.510;2023-11-21T02:36:29;100655.00;;;8.40
15607;BMP180;7865;50.918;4.510;2023-11-21T02:41:30;100655.00;;;8.40
15607;BMP180;7865;50.918;4.510;2023-11-21T02:46:33;100660.00;;;8.50
15607;BMP180;7865;50.918;4.510;2023-11-21T02:51:34;100666.00;;;8.50
15607;BMP180;7865;50.918;4.510;2023-11-21T02:56:35;100668.00;;;8.50
15607;BMP180;7865;50.918;4.510;2023-11-21T03:01:37;100656.00;;;8.50
15607;BMP180;7865;50.918;4.510;2023-11-21T03:06:40;100661.00;;;8.50
15607;BMP180;7865;50.918;4.510;2023-11-21T03:11:41;100667.00;;;8.50
15607;BMP180;7865;50.918;4.510;2023-11-21T03:16:57;100667.00;;;8.60
15607;BMP180;7865;50.918;4.510;2023-11-21T03:21:58;100671.00;;;8.60
15607;BMP180;7865;50.918;4.510;2023-11-21T03:27:00;100673.00;;;8.60
15607;BMP180;7865;50.918;4.510;2023-11-21T03:32:01;100675.00;;;8.60
15607;BMP180;7865;50.918;4.510;2023-11-21T03:37:03;100678.00;;;8.60
15607;BMP180;7865;50.918;4.510;2023-11-21T03:42:04;100679.00;;;8.60
15607;BMP180;7865;50.918;4.510;2023-11-21T03:47:05;100690.00;;;8.70
15607;BMP180;7865;50.918;4.510;2023-11-21T03:52:07;100691.00;;;8.70
15607;BMP180;7865;50.918;4.510;2023-11-21T03:57:10;100695.00;;;8.70
15607;BMP180;7865;50.918;4.510;2023-11-21T04:02:12;100699.00;;;8.70
15607;BMP180;7865;50.918;4.510;2023-11-21T04:07:13;100696.00;;;8.70
15607;BMP180;7865;50.918;4.510;2023-11-21T04:12:14;100708.00;;;8.70
15607;BMP180;7865;50.918;4.510;2023-11-21T04:17:18;100714.00;;;8.70
15607;BMP180;7865;50.918;4.510;2023-11-21T04:22:20;100726.00;;;8.70
15607;BMP180;7865;50.918;4.510;2023-11-21T04:27:21;100732.00;;;8.70
15607;BMP180;7865;50.918;4.510;2023-11-21T04:32:22;100735.00;;;8.70
15607;BMP180;7865;50.918;4.510;2023-11-21T04:37:23;100727.00;;;8.70
15607;BMP180;7865;50.918;4.510;2023-11-21T04:42:25;100736.00;;;8.70
15607;BMP180;7865;50.918;4.510;2023-11-21T04:47:26;100750.00;;;8.80
15607;BMP180;7865;50.918;4.510;2023-11-21T04:52:27;100759.00;;;8.80
15607;BMP180;7865;50.918;4.510;2023-11-21T04:57:28;100754.00;;;8.80
15607;BMP180;7865;50.918;4.510;2023-11-21T05:02:29;100767.00;;;8.80
15607;BMP180;7865;50.918;4.510;2023-11-21T05:07:37;100762.00;;;8.80
15607;BMP180;7865;50.918;4.510;2023-11-21T05:12:38;100767.00;;;8.80
15607;BMP180;7865;50.918;4.510;2023-11-21T05:17:40;100778.00;;;8.90
15607;BMP180;7865;50.918;4.510;2023-11-21T05:22:50;100783.00;;;8.90
15607;BMP180;7865;50.918;4.510;2023-11-21T05:27:52;100785.00;;;8.90
15607;BMP180;7865;50.918;4.510;2023-11-21T05:32:54;100784.00;;;8.90
15607;BMP180;7865;50.918;4.510;2023-11-21T05:37:55;100793.00;;;8.90
15607;BMP180;7865;50.918;4.510;2023-11-21T05:42:56;100800.00;;;8.90
15607;BMP180;7865;50.918;4.510;2023-11-21T05:47:58;100805.00;;;8.90
15607;BMP180;7865;50.918;4.510;2023-11-21T05:52:59;100816.00;;;8.90
15607;BMP180;7865;50.918;4.510;2023-11-21T05:58:01;100823.00;;;8.90
15607;BMP180;7865;50.918;4.510;2023-11-21T06:03:03;100827.00;;;8.90
15607;BMP180;7865;50.918;4.510;2023-11-21T06:08:07;100844.00;;;9.00
15607;BMP180;7865;50.918;4.510;2023-11-21T06:13:08;100834.00;;;9.00
15607;BMP180;7865;50.918;4.510;2023-11-21T06:18:11;100846.00;;;9.00
15607;BMP180;7865;50.918;4.510;2023-11-21T06:23:16;100848.00;;;9.00
15607;BMP180;7865;50.918;4.510;2023-11-21T06:28:17;100835.00;;;9.00
15607;BMP180;7865;50.918;4.510;2023-11-21T06:33:19;100857.00;;;9.00
15607;BMP180;7865;50.918;4.510;2023-11-21T06:38:20;100871.00;;;9.00
15607;BMP180;7865;50.918;4.510;2023-11-21T06:43:21;100879.00;;;9.00
15607;BMP180;7865;50.918;4.510;2023-11-21T06:48:22;100888.00;;;9.00
15607;BMP180;7865;50.918;4.510;2023-11-21T06:53:24;100886.00;;;9.00
15607;BMP180;7865;50.918;4.510;2023-11-21T06:58:25;100890.00;;;9.00
15607;BMP180;7865;50.918;4.510;2023-11-21T07:03:26;100891.00;;;9.10
15607;BMP180;7865;50.918;4.510;2023-11-21T07:08:28;100898.00;;;9.10
15607;BMP180;7865;50.918;4.510;2023-11-21T07:13:29;100913.00;;;9.10
15607;BMP180;7865;50.918;4.510;2023-11-21T07:18:30;100919.00;;;9.10
15607;BMP180;7865;50.918;4.510;2023-11-21T07:23:31;100937.00;;;9.20
15607;BMP180;7865;50.918;4.510;2023-11-21T07:28:32;100945.00;;;9.20
15607;BMP180;7865;50.918;4.510;2023-11-21T07:33:33;100953.00;;;9.30
15607;BMP180;7865;50.918;4.510;2023-11-21T07:38:35;100957.00;;;9.30
15607;BMP180;7865;50.918;4.510;2023-11-21T07:43:36;100966.00;;;9.30
15607;BMP180;7865;50.918;4.510;2023-11-21T07:48:39;100954.00;;;9.30
15607;BMP180;7865;50.918;4.510;2023-11-21T07:53:40;100966.00;;;9.40
15607;BMP180;7865;50.918;4.510;2023-11-21T07:58:41;100980.00;;;9.50
15607;BMP180;7865;50.918;4.510;2023-11-21T08:03:42;100987.00;;;9.50
15607;BMP180;7865;50.918;4.510;2023-11-21T08:08:45;100992.00;;;9.50
15607;BMP180;7865;50.918;4.510;2023-11-21T08:13:46;100999.00;;;9.60
15607;BMP180;7865;50.918;4.510;2023-11-21T08:18:47;101003.00;;;9.60
15607;BMP180;7865;50.918;4.510;2023-11-21T08:23:48;101007.00;;;9.70
15607;BMP180;7865;50.918;4.510;2023-11-21T08:28:54;101017.00;;;9.80
15607;BMP180;7865;50.918;4.510;2023-11-21T08:33:57;101015.00;;;9.90
15607;BMP180;7865;50.918;4.510;2023-11-21T08:38:58;101014.00;;;10.00
15607;BMP180;7865;50.918;4.510;2023-11-21T08:43:59;101007.00;;;10.20
15607;BMP180;7865;50.918;4.510;2023-11-21T08:49:01;101014.00;;;10.20
15607;BMP180;7865;50.918;4.510;2023-11-21T08:54:03;101024.00;;;10.30
15607;BMP180;7865;50.918;4.510;2023-11-21T08:59:08;101022.00;;;10.30
15607;BMP180;7865;50.918;4.510;2023-11-21T09:04:09;101025.00;;;10.40
15607;BMP180;7865;50.918;4.510;2023-11-21T09:09:10;101039.00;;;10.20
15607;BMP180;7865;50.918;4.510;2023-11-21T09:14:12;101050.00;;;10.00
15607;BMP180;7865;50.918;4.510;2023-11-21T09:19:15;101068.00;;;9.90
15607;BMP180;7865;50.918;4.510;2023-11-21T09:24:16;101063.00;;;9.90
15607;BMP180;7865;50.918;4.510;2023-11-21T09:29:17;101077.00;;;9.90
15607;BMP180;7865;50.918;4.510;2023-11-21T09:34:19;101075.00;;;10.10
15607;BMP180;7865;50.918;4.510;2023-11-21T09:39:21;101082.00;;;10.40
15607;BMP180;7865;50.918;4.510;2023-11-21T09:44:35;101094.00;;;10.40
15607;BMP180;7865;50.918;4.510;2023-11-21T09:49:38;101099.00;;;10.20
15607;BMP180;7865;50.918;4.510;2023-11-21T09:54:39;101108.00;;;10.10
15607;BMP180;7865;50.918;4.510;2023-11-21T09:59:42;101119.00;;;10.00
15607;BMP180;7865;50.918;4.510;2023-11-21T10:04:45;101129.00;;;10.10
15607;BMP180;7865;50.918;4.510;2023-11-21T10:09:47;101125.00;;;10.30
15607;BMP180;7865;50.918;4.510;2023-11-21T10:14:50;101134.00;;;10.40
15607;BMP180;7865;50.918;4.510;2023-11-21T10:19:53;101144.00;;;10.60
15607;BMP180;7865;50.918;4.510;2023-11-21T10:24:56;101146.00;;;10.70
15607;BMP180;7865;50.918;4.510;2023-11-21T10:29:57;101140.00;;;10.90
15607;BMP180;7865;50.918;4.510;2023-11-21T10:35:00;101143.00;;;11.30
15607;BMP180;7865;50.918;4.510;2023-11-21T10:40:08;101149.00;;;11.40
15607;BMP180;7865;50.918;4.510;2023-11-21T10:45:13;101150.00;;;11.30
15607;BMP180;7865;50.918;4.510;2023-11-21T10:50:18;101160.00;;;11.20
15607;BMP180;7865;50.918;4.510;2023-11-21T10:55:19;101155.00;;;11.10
15607;BMP180;7865;50.918;4.510;2023-11-21T11:00:22;101158.00;;;11.10
15607;BMP180;7865;50.918;4.510;2023-11-21T11:05:30;101153.00;;;11.40
15607;BMP180;7865;50.918;4.510;2023-11-21T11:10:33;101152.00;;;11.50
15607;BMP180;7865;50.918;4.510;2023-11-21T11:15:34;101160.00;;;11.50
15607;BMP180;7865;50.918;4.510;2023-11-21T11:20:37;101165.00;;;11.60
15607;BMP180;7865;50.918;4.510;2023-11-21T11:31:37;101177.00;;;11.80
15607;BMP180;7865;50.918;4.510;2023-11-21T11:36:49;101173.00;;;12.00
15607;BMP180;7865;50.918;4.510;2023-11-21T11:41:53;101172.00;;;12.00
15607;BMP180;7865;50.918;4.510;2023-11-21T11:46:56;101179.00;;;12.00
15607;BMP180;7865;50.918;4.510;2023-11-21T11:52:31;101183.00;;;11.70
15607;BMP180;7865;50.918;4.510;2023-11-21T11:57:34;101179.00;;;11.60
15607;BMP180;7865;50.918;4.510;2023-11-21T12:02:36;101183.00;;;11.30
15607;BMP180;7865;50.918;4.510;2023-11-21T12:07:53;101184.00;;;11.10
15607;BMP180;7865;50.918;4.510;2023-11-21T12:12:57;101200.00;;;10.90
15607;BMP180;7865;50.918;4.510;2023-11-21T12:17:59;101208.00;;;10.90
15607;BMP180;7865;50.918;4.510;2023-11-21T12:23:01;101200.00;;;11.00
15607;BMP180;7865;50.918;4.510;2023-11-21T12:28:02;101195.00;;;11.40
15607;BMP180;7865;50.918;4.510;2023-11-21T12:33:04;101203.00;;;11.60
15607;BMP180;7865;50.918;4.510;2023-11-21T12:38:07;101200.00;;;11.70
15607;BMP180;7865;50.918;4.510;2023-11-21T12:43:10;101204.00;;;12.00
15607;BMP180;7865;50.918;4.510;2023-11-21T12:48:11;101209.00;;;11.90
15607;BMP180;7865;50.918;4.510;2023-11-21T12:53:13;101224.00;;;11.70
15607;BMP180;7865;50.918;4.510;2023-11-21T12:58:17;101224.00;;;11.50
15607;BMP180;7865;50.918;4.510;2023-11-21T13:03:21;101239.00;;;11.10
15607;BMP180;7865;50.918;4.510;2023-11-21T13:08:26;101251.00;;;11.00
15607;BMP180;7865;50.918;4.510;2023-11-21T13:13:29;101249.00;;;11.30
15607;BMP180;7865;50.918;4.510;2023-11-21T13:18:31;101250.00;;;11.40
15607;BMP180;7865;50.918;4.510;2023-11-21T13:23:34;101247.00;;;11.50
15607;BMP180;7865;50.918;4.510;2023-11-21T13:28:37;101246.00;;;11.60
15607;BMP180;7865;50.918;4.510;2023-11-21T13:33:39;101251.00;;;11.40
15607;BMP180;7865;50.918;4.510;2023-11-21T13:38:41;101260.00;;;11.20
15607;BMP180;7865;50.918;4.510;2023-11-21T13:43:43;101268.00;;;11.10
15607;BMP180;7865;50.918;4.510;2023-11-21T13:48:51;101272.00;;;11.20
15607;BMP180;7865;50.918;4.510;2023-11-21T13:53:57;101274.00;;;11.20
15607;BMP180;7865;50.918;4.510;2023-11-21T13:58:58;101280.00;;;11.10
15607;BMP180;7865;50.918;4.510;2023-11-21T14:04:05;101280.00;;;11.30
15607;BMP180;7865;50.918;4.510;2023-11-21T14:09:20;101279.00;;;11.20
15607;BMP180;7865;50.918;4.510;2023-11-21T14:14:26;101300.00;;;11.10
15607;BMP180;7865;50.918;4.510;2023-11-21T14:19:28;101303.00;;;11.00
15607;BMP180;7865;50.918;4.510;2023-11-21T14:24:33;101302.00;;;11.00
15607;BMP180;7865;50.918;4.510;2023-11-21T14:29:34;101303.00;;;10.90
15607;BMP180;7865;50.918;4.510;2023-11-21T14:34:40;101318.00;;;10.70
15607;BMP180;7865;50.918;4.510;2023-11-21T14:39:43;101329.00;;;10.60
15607;BMP180;7865;50.918;4.510;2023-11-21T14:44:48;101337.00;;;10.50
15607;BMP180;7865;50.918;4.510;2023-11-21T14:49:49;101350.00;;;10.50
15607;BMP180;7865;50.918;4.510;2023-11-21T14:54:53;101355.00;;;10.40
15607;BMP180;7865;50.918;4.510;2023-11-21T15:00:16;101355.00;;;10.40
15607;BMP180;7865;50.918;4.510;2023-11-21T15:05:38;101369.00;;;10.30
15607;BMP180;7865;50.918;4.510;2023-11-21T15:10:46;101377.00;;;10.30
15607;BMP180;7865;50.918;4.510;2023-11-21T15:15:49;101378.00;;;10.30
15607;BMP180;7865;50.918;4.510;2023-11-21T15:20:53;101390.00;;;10.30
15607;BMP180;7865;50.918;4.510;2023-11-21T15:25:55;101399.00;;;10.20
15607;BMP180;7865;50.918;4.510;2023-11-21T15:30:57;101411.00;;;10.20
15607;BMP180;7865;50.918;4.510;2023-11-21T15:35:58;101409.00;;;10.10
15607;BMP180;7865;50.918;4.510;2023-11-21T15:40:59;101422.00;;;10.10
15607;BMP180;7865;50.918;4.510;2023-11-21T15:46:01;101434.00;;;10.10
15607;BMP180;7865;50.918;4.510;2023-11-21T15:51:07;101443.00;;;10.10
15607;BMP180;7865;50.918;4.510;2023-11-21T15:56:13;101448.00;;;10.10
15607;BMP180;7865;50.918;4.510;2023-11-21T16:01:14;101457.00;;;10.00
15607;BMP180;7865;50.918;4.510;2023-11-21T16:06:16;101473.00;;;10.00
15607;BMP180;7865;50.918;4.510;2023-11-21T16:11:17;101468.00;;;10.00
15607;BMP180;7865;50.918;4.510;2023-11-21T16:16:21;101480.00;;;10.00
15607;BMP180;7865;50.918;4.510;2023-11-21T16:21:22;101490.00;;;10.00
15607;BMP180;7865;50.918;4.510;2023-11-21T16:26:23;101491.00;;;9.90
15607;BMP180;7865;50.918;4.510;2023-11-21T16:31:24;101519.00;;;9.80
15607;BMP180;7865;50.918;4.510;2023-11-21T16:36:26;101523.00;;;9.80
15607;BMP180;7865;50.918;4.510;2023-11-21T16:41:27;101524.00;;;9.80
15607;BMP180;7865;50.918;4.510;2023-11-21T16:46:29;101524.00;;;9.70
15607;BMP180;7865;50.918;4.510;2023-11-21T16:51:30;101536.00;;;9.70
15607;BMP180;7865;50.918;4.510;2023-11-21T16:56:32;101542.00;;;9.60
15607;BMP180;7865;50.918;4.510;2023-11-21T17:01:33;101554.00;;;9.60
15607;BMP180;7865;50.918;4.510;2023-11-21T17:06:34;101572.00;;;9.60
15607;BMP180;7865;50.918;4.510;2023-11-21T17:11:36;101575.00;;;9.60
15607;BMP180;7865;50.918;4.510;2023-11-21T17:16:38;101587.00;;;9.60
15607;BMP180;7865;50.918;4.510;2023-11-21T17:21:41;101589.00;;;9.60
15607;BMP180;7865;50.918;4.510;2023-11-21T17:26:43;101591.00;;;9.60
15607;BMP180;7865;50.918;4.510;2023-11-21T17:31:44;101617.00;;;9.60
15607;BMP180;7865;50.918;4.510;2023-11-21T17:36:45;101625.00;;;9.60
15607;BMP180;7865;50.918;4.510;2023-11-21T17:41:47;101631.00;;;9.60
15607;BMP180;7865;50.918;4.510;2023-11-21T17:46:50;101639.00;;;9.60
15607;BMP180;7865;50.918;4.510;2023-11-21T17:51:56;101655.00;;;9.60
15607;BMP180;7865;50.918;4.510;2023-11-21T17:57:03;101654.00;;;9.60
15607;BMP180;7865;50.918;4.510;2023-11-21T18:02:11;101662.00;;;9.60
15607;BMP180;7865;50.918;4.510;2023-11-21T18:07:12;101671.00;;;9.60
15607;BMP180;7865;50.918;4.510;2023-11-21T18:12:15;101684.00;;;9.50
15607;BMP180;7865;50.918;4.510;2023-11-21T18:17:17;101686.00;;;9.50
15607;BMP180;7865;50.918;4.510;2023-11-21T18:22:20;101687.00;;;9.50
15607;BMP180;7865;50.918;4.510;2023-11-21T18:27:26;101695.00;;;9.60
15607;BMP180;7865;50.918;4.510;2023-11-21T18:32:30;101710.00;;;9.50
15607;BMP180;7865;50.918;4.510;2023-11-21T18:37:32;101728.00;;;9.50
15607;BMP180;7865;50.918;4.510;2023-11-21T18:42:33;101733.00;;;9.50
15607;BMP180;7865;50.918;4.510;2023-11-21T18:47:34;101735.00;;;9.50
15607;BMP180;7865;50.918;4.510;2023-11-21T18:52:35;101742.00;;;9.50
15607;BMP180;7865;50.918;4.510;2023-11-21T18:57:36;101746.00;;;9.50
15607;BMP180;7865;50.918;4.510;2023-11-21T19:02:37;101756.00;;;9.40
15607;BMP180;7865;50.918;4.510;2023-11-21T19:07:40;101764.00;;;9.40
15607;BMP180;7865;50.918;4.510;2023-11-21T19:12:42;101779.00;;;9.30
15607;BMP180;7865;50.918;4.510;2023-11-21T19:17:43;101795.00;;;9.30
15607;BMP180;7865;50.918;4.510;2023-11-21T19:22:44;101795.00;;;9.20
15607;BMP180;7865;50.918;4.510;2023-11-21T19:27:46;101799.00;;;9.20
15607;BMP180;7865;50.918;4.510;2023-11-21T19:32:49;101813.00;;;9.20
15607;BMP180;7865;50.918;4.510;2023-11-21T19:37:50;101823.00;;;9.10
15607;BMP180;7865;50.918;4.510;2023-11-21T19:42:52;101838.00;;;9.10
15607;BMP180;7865;50.918;4.510;2023-11-21T19:47:54;101844.00;;;9.00
15607;BMP180;7865;50.918;4.510;2023-11-21T19:52:55;101850.00;;;8.90
15607;BMP180;7865;50.918;4.510;2023-11-21T19:57:56;101864.00;;;8.80
15607;BMP180;7865;50.918;4.510;2023-11-21T20:02:57;101876.00;;;8.80
15607;BMP180;7865;50.918;4.510;2023-11-21T20:07:58;101888.00;;;8.60
15607;BMP180;7865;50.918;4.510;2023-11-21T20:13:00;101892.00;;;8.50
15607;BMP180;7865;50.918;4.510;2023-11-21T20:18:07;101892.00;;;8.40
15607;BMP180;7865;50.918;4.510;2023-11-21T20:23:08;101901.00;;;8.30
15607;BMP180;7865;50.918;4.510;2023-11-21T20:28:09;101898.00;;;8.30
15607;BMP180;7865;50.918;4.510;2023-11-21T20:33:10;101921.00;;;8.20
15607;BMP180;7865;50.918;4.510;2023-11-21T20:38:12;101925.00;;;8.20
15607;BMP180;7865;50.918;4.510;2023-11-21T20:43:14;101932.00;;;8.10
15607;BMP180;7865;50.918;4.510;2023-11-21T20:48:15;101930.00;;;7.90
15607;BMP180;7865;50.918;4.510;2023-11-21T20:53:18;101937.00;;;7.70
15607;BMP180;7865;50.918;4.510;2023-11-21T20:58:19;101945.00;;;7.60
15607;BMP180;7865;50.918;4.510;2023-11-21T21:03:20;101962.00;;;7.50
15607;BMP180;7865;50.918;4.510;2023-11-21T21:08:22;101967.00;;;7.30
15607;BMP180;7865;50.918;4.510;2023-11-21T21:13:26;101966.00;;;7.10
15607;BMP180;7865;50.918;4.510;2023-11-21T21:18:27;101974.00;;;7.00
15607;BMP180;7865;50.918;4.510;2023-11-21T21:23:29;101980.00;;;6.80
15607;BMP180;7865;50.918;4.510;2023-11-21T21:28:30;101982.00;;;6.70
15607;BMP180;7865;50.918;4.510;2023-11-21T21:33:31;101989.00;;;6.70
15607;BMP180;7865;50.918;4.510;2023-11-21T21:38:33;102002.00;;;6.70
15607;BMP180;7865;50.918;4.510;2023-11-21T21:43:34;102016.00;;;6.70
15607;BMP180;7865;50.918;4.510;2023-11-21T21:48:35;102017.00;;;6.60
15607;BMP180;7865;50.918;4.510;2023-11-21T21:53:36;102040.00;;;6.60
15607;BMP180;7865;50.918;4.510;2023-11-21T21:58:38;102042.00;;;6.40
15607;BMP180;7865;50.918;4.510;2023-11-21T22:03:39;102051.00;;;6.20
15607;BMP180;7865;50.918;4.510;2023-11-21T22:08:41;102061.00;;;6.10
15607;BMP180;7865;50.918;4.510;2023-11-21T22:13:42;102058.00;;;5.90
15607;BMP180;7865;50.918;4.510;2023-11-21T22:18:43;102073.00;;;5.80
15607;BMP180;7865;50.918;4.510;2023-11-21T22:23:44;102084.00;;;5.70
15607;BMP180;7865;50.918;4.510;2023-11-21T22:28:45;102094.00;;;5.60
15607;BMP180;7865;50.918;4.510;2023-11-21T22:33:46;102105.00;;;5.50
15607;BMP180;7865;50.918;4.510;2023-11-21T22:38:47;102094.00;;;5.50
15607;BMP180;7865;50.918;4.510;2023-11-21T22:43:48;102093.00;;;5.40
15607;BMP180;7865;50.918;4.510;2023-11-21T22:48:50;102115.00;;;5.30
15607;BMP180;7865;50.918;4.510;2023-11-21T22:53:51;102120.00;;;5.30
15607;BMP180;7865;50.918;4.510;2023-11-21T22:58:52;102112.00;;;5.20
15607;BMP180;7865;50.918;4.510;2023-11-21T23:03:53;102119.00;;;5.10
15607;BMP180;7865;50.918;4.510;2023-11-21T23:08:56;102111.00;;;5.00
15607;BMP180;7865;50.918;4.510;2023-11-21T23:13:57;102115.00;;;5.00
15607;BMP180;7865;50.918;4.510;2023-11-21T23:18:58;102119.00;;;4.90
15607;BMP180;7865;50.918;4.510;2023-11-21T23:23:59;102133.00;;;4.90
15607;BMP180;7865;50.918;4.510;2023-11-21T23:29:07;102129.00;;;4.80
15607;BMP180;7865;50.918;4.510;2023-11-21T23:34:09;102133.00;;;4.80
15607;BMP180;7865;50.918;4.510;2023-11-21T23:39:12;102137.00;;;4.70
15607;BMP180;7865;50.918;4.510;2023-11-21T23:44:15;102145.00;;;4.70
15607;BMP180;7865;50.918;4.510;2023-11-21T23:49:17;102148.00;;;4.70
15607;BMP180;7865;50.918;4.510;2023-11-21T23:54:19;102155.00;;;4.60
15607;BMP180;7865;50.918;4.510;2023-11-21T23:59:21;102161.00;;;4.50
